createdAt,value
2018-07-15T00:02:03.475Z,69.00
2018-07-15T00:04:44.889Z,65.70
2018-07-15T00:10:07.391Z,65.10
2018-07-15T00:12:48.484Z,64.70
2018-07-15T00:15:29.051Z,63.40
2018-07-15T00:18:10.408Z,61.70
2018-07-15T00:20:51.914Z,62.10
2018-07-15T00:23:32.556Z,62.30
2018-07-15T00:26:13.347Z,61.70
2018-07-15T00:28:54.847Z,60.80
2018-07-15T00:31:35.996Z,57.80
2018-07-15T00:34:17.312Z,58.70
2018-07-15T00:36:58.513Z,57.70
2018-07-15T00:39:40.133Z,58.00
2018-07-15T00:42:20.832Z,58.40
2018-07-15T00:45:02.188Z,58.00
2018-07-15T00:47:43.100Z,57.60
2018-07-15T00:50:24.048Z,57.30
2018-07-15T00:53:05.044Z,57.20
2018-07-15T00:55:46.004Z,58.00
2018-07-15T00:58:26.860Z,58.20
2018-07-15T01:01:07.652Z,58.30
2018-07-15T01:03:48.339Z,59.10
2018-07-15T01:06:29.220Z,59.80
2018-07-15T01:09:11.164Z,61.30
2018-07-15T01:11:52.059Z,61.20
2018-07-15T01:14:33.144Z,62.40
2018-07-15T01:17:14.079Z,63.20
2018-07-15T01:19:54.693Z,65.10
2018-07-15T01:22:35.911Z,66.20
2018-07-15T01:25:17.247Z,66.60
2018-07-15T01:27:58.247Z,66.90
2018-07-15T01:30:39.597Z,67.40
2018-07-15T01:33:20.394Z,68.10
2018-07-15T01:36:01.380Z,68.80
2018-07-15T01:38:42.438Z,68.90
2018-07-15T01:41:23.881Z,72.40
2018-07-15T01:44:05.015Z,73.80
2018-07-15T01:46:46.405Z,74.80
2018-07-15T01:49:27.960Z,76.90
2018-07-15T01:52:09.591Z,77.60
2018-07-15T01:54:51.061Z,78.70
2018-07-15T01:57:31.777Z,78.50
2018-07-15T02:00:13.110Z,78.50
2018-07-15T02:02:54.082Z,78.40
2018-07-15T02:05:34.700Z,78.30
2018-07-15T02:08:15.615Z,78.60
2018-07-15T02:10:56.635Z,78.80
2018-07-15T02:13:37.581Z,78.70
2018-07-15T02:16:18.475Z,78.60
2018-07-15T02:18:59.900Z,78.40
2018-07-15T02:21:40.704Z,75.40
2018-07-15T02:24:21.934Z,75.40
2018-07-15T02:27:03.200Z,77.70
2018-07-15T02:29:44.337Z,78.80
2018-07-15T02:32:24.792Z,81.00
2018-07-15T02:35:06.208Z,82.20
2018-07-15T02:37:46.961Z,84.00
2018-07-15T02:40:28.368Z,85.80
2018-07-15T02:45:49.980Z,91.40
2018-07-15T02:48:31.189Z,92.60
2018-07-15T02:53:53.886Z,95.20
2018-07-15T02:56:35.306Z,96.40
2018-07-15T02:59:16.032Z,97.60
2018-07-15T03:01:57.312Z,98.40
2018-07-15T03:04:37.972Z,98.60
2018-07-15T03:07:19.304Z,98.70
2018-07-15T03:12:41.381Z,99.50
2018-07-15T03:15:22.352Z,99.70
2018-07-15T03:18:03.066Z,99.90
2018-07-15T03:20:44.168Z,99.90
2018-07-15T03:23:24.904Z,99.90
2018-07-15T03:26:06.019Z,99.90
2018-07-15T03:28:47.215Z,99.90
2018-07-15T03:31:28.096Z,99.90
2018-07-15T03:34:09.140Z,99.90
2018-07-15T03:36:50.032Z,99.90
2018-07-15T03:39:31.277Z,99.90
2018-07-15T03:42:12.256Z,99.90
2018-07-15T03:44:53.276Z,99.90
2018-07-15T03:47:34.775Z,99.90
2018-07-15T03:50:15.432Z,99.90
2018-07-15T03:52:56.855Z,99.90
2018-07-15T03:55:38.244Z,99.90
2018-07-15T03:58:19.612Z,99.90
2018-07-15T04:01:01.016Z,99.90
2018-07-15T04:03:42.376Z,99.90
2018-07-15T04:06:23.075Z,99.90
2018-07-15T04:09:05.232Z,99.90
2018-07-15T04:11:46.319Z,99.90
2018-07-15T04:14:27.283Z,99.90
2018-07-15T04:17:08.825Z,99.90
2018-07-15T04:19:49.349Z,99.90
2018-07-15T04:22:30.475Z,99.90
2018-07-15T04:25:11.333Z,99.90
2018-07-15T04:27:52.092Z,99.90
2018-07-15T04:30:33.084Z,99.90
2018-07-15T04:33:14.527Z,99.90
2018-07-15T04:35:55.391Z,99.90
2018-07-15T04:38:36.836Z,99.90
2018-07-15T04:41:17.652Z,99.90
2018-07-15T04:43:58.527Z,99.90
2018-07-15T04:46:39.673Z,99.90
2018-07-15T04:49:20.671Z,99.90
2018-07-15T04:52:01.975Z,99.90
2018-07-15T04:54:42.850Z,99.90
2018-07-15T04:57:23.840Z,99.90
2018-07-15T05:00:05.155Z,99.90
2018-07-15T05:02:46.417Z,99.90
2018-07-15T05:05:27.376Z,99.90
2018-07-15T05:08:08.789Z,99.90
2018-07-15T05:10:50.114Z,99.90
2018-07-15T05:13:31.361Z,99.90
2018-07-15T05:16:11.871Z,99.90
2018-07-15T05:18:52.788Z,99.90
2018-07-15T05:21:34.107Z,99.90
2018-07-15T05:24:15.203Z,99.90
2018-07-15T05:26:55.996Z,99.90
2018-07-15T05:29:36.861Z,99.90
2018-07-15T05:32:17.564Z,99.90
2018-07-15T05:35:04.888Z,99.90
2018-07-15T05:37:45.424Z,99.90
2018-07-15T05:40:26.419Z,99.90
2018-07-15T05:43:07.440Z,99.70
2018-07-15T05:45:48.630Z,99.40
2018-07-15T05:48:29.431Z,98.90
2018-07-15T05:51:10.467Z,98.30
2018-07-15T05:53:51.967Z,98.00
2018-07-15T05:56:33.287Z,97.10
2018-07-15T05:59:14.319Z,96.00
2018-07-15T06:01:55.274Z,95.50
2018-07-15T06:04:36.427Z,94.50
2018-07-15T06:07:18.226Z,94.00
2018-07-15T06:09:58.924Z,93.40
2018-07-15T06:12:39.910Z,93.00
2018-07-15T06:15:20.499Z,92.60
2018-07-15T06:18:01.760Z,92.90
2018-07-15T06:20:42.447Z,92.30
2018-07-15T06:23:23.600Z,91.10
2018-07-15T06:26:04.427Z,90.60
2018-07-15T06:28:45.616Z,89.70
2018-07-15T06:34:08.504Z,87.70
2018-07-15T06:36:49.906Z,86.50
2018-07-15T06:39:30.677Z,86.00
2018-07-15T06:42:11.763Z,85.40
2018-07-15T06:44:52.468Z,85.20
2018-07-15T06:47:33.260Z,85.60
2018-07-15T06:50:14.251Z,83.70
2018-07-15T06:52:54.915Z,84.50
2018-07-15T06:55:35.860Z,82.50
2018-07-15T06:58:17.599Z,81.80
2018-07-15T07:00:58.896Z,81.50
2018-07-15T07:03:39.864Z,80.40
2018-07-15T07:06:21.023Z,78.40
2018-07-15T07:09:01.718Z,76.60
2018-07-15T07:11:42.759Z,76.40
2018-07-15T07:14:23.623Z,76.60
2018-07-15T07:17:04.739Z,76.60
2018-07-15T07:19:46.138Z,76.80
2018-07-15T07:22:26.728Z,77.20
2018-07-15T07:27:49.001Z,78.90
2018-07-15T07:30:29.848Z,79.00
2018-07-15T07:33:11.243Z,78.50
2018-07-15T07:35:54.063Z,78.70
2018-07-15T07:38:35.283Z,79.10
2018-07-15T07:41:16.497Z,80.50
2018-07-15T07:43:57.867Z,81.60
2018-07-15T07:46:41.801Z,79.70
2018-07-15T07:49:22.983Z,78.90
2018-07-15T07:52:04.419Z,79.40
2018-07-15T07:54:45.084Z,80.20
2018-07-15T07:57:26.211Z,80.80
2018-07-15T08:00:06.886Z,80.70
2018-07-15T08:02:47.679Z,81.00
2018-07-15T08:05:28.823Z,80.00
2018-07-15T08:08:09.464Z,78.80
2018-07-15T08:16:15.577Z,78.10
2018-07-15T08:18:56.281Z,77.80
2018-07-15T08:21:36.956Z,78.20
2018-07-15T08:24:18.250Z,77.20
2018-07-15T08:26:58.970Z,76.80
2018-07-15T08:29:40.329Z,76.50
2018-07-15T08:32:21.544Z,76.30
2018-07-15T08:35:02.682Z,77.20
2018-07-15T08:37:44.075Z,78.00
2018-07-15T08:40:24.971Z,78.80
2018-07-15T08:43:05.852Z,78.70
2018-07-15T08:45:47.070Z,79.10
2018-07-15T08:51:09.447Z,79.80
2018-07-15T08:53:50.600Z,79.10
2018-07-15T08:56:31.315Z,78.50
2018-07-15T08:59:12.580Z,78.40
2018-07-15T09:01:53.538Z,78.50
2018-07-15T09:04:34.857Z,78.00
2018-07-15T09:07:15.848Z,78.60
2018-07-15T09:09:56.763Z,78.80
2018-07-15T09:12:37.756Z,80.50
2018-07-15T09:15:18.768Z,80.70
2018-07-15T09:17:59.796Z,80.30
2018-07-15T09:20:40.443Z,79.90
2018-07-15T09:23:21.630Z,79.70
2018-07-15T09:26:02.859Z,79.60
2018-07-15T09:28:44.075Z,78.80
2018-07-15T09:31:25.380Z,78.40
2018-07-15T09:34:06.428Z,78.80
2018-07-15T09:36:47.576Z,77.60
2018-07-15T09:39:28.727Z,77.10
2018-07-15T09:42:09.951Z,77.00
2018-07-15T09:44:51.365Z,76.90
2018-07-15T09:47:32.840Z,76.60
2018-07-15T09:50:14.265Z,77.20
2018-07-15T09:52:55.144Z,77.20
2018-07-15T09:55:36.469Z,77.20
2018-07-15T09:58:17.967Z,77.60
2018-07-15T10:00:59.202Z,78.10
2018-07-15T10:03:40.527Z,79.30
2018-07-15T10:06:21.458Z,80.00
2018-07-15T10:09:02.404Z,81.10
2018-07-15T10:11:43.362Z,81.90
2018-07-15T10:14:24.381Z,82.30
2018-07-15T10:17:05.507Z,83.10
2018-07-15T10:19:46.604Z,83.80
2018-07-15T10:22:27.588Z,84.00
2018-07-15T10:25:08.338Z,84.20
2018-07-15T10:27:49.166Z,84.20
2018-07-15T10:30:30.286Z,84.20
2018-07-15T10:33:11.479Z,83.90
2018-07-15T10:35:52.480Z,83.60
2018-07-15T10:38:33.608Z,84.40
2018-07-15T10:41:14.814Z,84.80
2018-07-15T10:43:55.994Z,84.70
2018-07-15T10:46:37.159Z,84.90
2018-07-15T10:49:18.469Z,85.60
2018-07-15T10:51:59.185Z,85.00
2018-07-15T10:54:40.582Z,84.90
2018-07-15T10:57:21.404Z,84.40
2018-07-15T11:00:02.628Z,84.40
2018-07-15T11:02:43.722Z,83.90
2018-07-15T11:05:25.195Z,83.60
2018-07-15T11:10:47.400Z,82.30
2018-07-15T11:13:28.888Z,83.10
2018-07-15T11:16:09.540Z,83.20
2018-07-15T11:18:50.891Z,82.70
2018-07-15T11:21:32.203Z,82.80
2018-07-15T11:24:12.829Z,83.50
2018-07-15T11:26:53.629Z,82.30
2018-07-15T11:29:34.992Z,81.70
2018-07-15T11:32:16.228Z,81.70
2018-07-15T11:34:57.289Z,81.50
2018-07-15T11:37:38.451Z,79.60
2018-07-15T11:45:42.016Z,78.60
2018-07-15T11:48:23.185Z,78.40
2018-07-15T11:51:04.296Z,78.90
2018-07-15T11:53:45.266Z,78.20
2018-07-15T11:56:26.000Z,77.50
2018-07-15T11:59:07.329Z,77.30
2018-07-15T12:01:48.561Z,77.70
2018-07-15T12:04:29.044Z,78.00
2018-07-15T12:07:10.320Z,79.10
2018-07-15T12:09:51.692Z,79.10
2018-07-15T12:12:32.927Z,79.70
2018-07-15T12:15:14.119Z,80.60
2018-07-15T12:17:55.366Z,80.10
2018-07-15T12:20:36.664Z,80.50
2018-07-15T12:23:17.941Z,81.60
2018-07-15T12:25:59.337Z,81.10
2018-07-15T12:28:40.840Z,80.60
2018-07-15T12:31:21.333Z,80.10
2018-07-15T12:34:02.486Z,81.10
2018-07-15T12:36:43.605Z,81.60
2018-07-15T12:39:24.835Z,81.50
2018-07-15T12:42:05.799Z,80.80
2018-07-15T12:44:46.833Z,79.80
2018-07-15T12:47:27.736Z,80.20
2018-07-15T12:50:08.959Z,81.00
2018-07-15T12:52:50.202Z,81.00
2018-07-15T12:58:12.460Z,81.30
2018-07-15T13:00:53.636Z,81.60
2018-07-15T13:03:34.528Z,81.10
2018-07-15T13:06:15.174Z,80.60
2018-07-15T13:08:56.386Z,80.90
2018-07-15T13:11:37.075Z,81.70
2018-07-15T13:14:18.136Z,82.00
2018-07-15T13:16:58.634Z,82.50
2018-07-15T13:19:39.495Z,82.80
2018-07-15T13:22:20.911Z,82.40
2018-07-15T13:25:01.779Z,82.50
2018-07-15T13:27:43.012Z,82.50
2018-07-15T13:30:24.401Z,82.50
2018-07-15T13:33:05.356Z,82.10
2018-07-15T13:38:27.227Z,81.90
2018-07-15T13:41:08.441Z,81.80
2018-07-15T13:43:49.349Z,81.40
2018-07-15T13:46:29.825Z,82.10
2018-07-15T13:49:10.636Z,81.70
2018-07-15T13:51:51.416Z,80.70
2018-07-15T13:54:32.420Z,80.00
2018-07-15T13:57:13.415Z,79.80
2018-07-15T13:59:54.239Z,79.50
2018-07-15T14:05:15.927Z,78.00
2018-07-15T14:07:56.983Z,79.60
2018-07-15T14:10:37.855Z,79.90
2018-07-15T14:13:18.680Z,80.00
2018-07-15T14:15:59.548Z,79.50
2018-07-15T14:18:40.751Z,79.60
2018-07-15T14:21:21.829Z,79.70
2018-07-15T14:24:02.508Z,79.20
2018-07-15T14:26:43.676Z,79.30
2018-07-15T14:29:25.002Z,79.80
2018-07-15T14:37:28.041Z,80.20
2018-07-15T14:40:09.219Z,80.00
2018-07-15T14:42:50.589Z,79.30
2018-07-15T14:45:31.859Z,79.30
2018-07-15T14:48:13.032Z,79.50
2018-07-15T14:50:53.992Z,79.80
2018-07-15T14:53:35.061Z,80.00
2018-07-15T14:56:15.949Z,80.50
2018-07-15T14:58:57.164Z,80.00
2018-07-15T15:01:38.049Z,80.60
2018-07-15T15:04:18.924Z,81.00
2018-07-15T15:06:59.755Z,81.50
2018-07-15T15:09:40.715Z,82.30
2018-07-15T15:12:22.017Z,82.70
2018-07-15T15:15:03.127Z,82.80
2018-07-15T15:17:44.031Z,82.60
2018-07-15T15:20:24.988Z,82.80
2018-07-15T15:23:06.028Z,83.00
2018-07-15T15:25:47.273Z,83.80
2018-07-15T15:28:28.281Z,84.40
2018-07-15T15:31:09.425Z,84.40
2018-07-15T15:33:50.508Z,84.20
2018-07-15T15:36:31.659Z,84.50
2018-07-15T15:39:12.667Z,84.50
2018-07-15T15:41:53.953Z,84.10
2018-07-15T15:44:35.561Z,83.00
2018-07-15T15:47:16.815Z,82.60
2018-07-15T15:49:58.093Z,82.90
2018-07-15T15:52:39.123Z,83.70
2018-07-15T15:55:20.285Z,83.90
2018-07-15T15:58:01.258Z,84.30
2018-07-15T16:00:41.786Z,84.70
2018-07-15T16:03:22.579Z,85.00
2018-07-15T16:06:03.617Z,86.10
2018-07-15T16:08:44.273Z,86.50
2018-07-15T16:11:25.508Z,87.00
2018-07-15T16:14:07.284Z,87.00
2018-07-15T16:16:48.035Z,87.00
2018-07-15T16:19:28.982Z,87.40
2018-07-15T16:22:09.949Z,87.70
2018-07-15T16:27:31.936Z,88.20
2018-07-15T16:30:12.747Z,88.70
2018-07-15T16:32:53.949Z,89.50
2018-07-15T16:35:34.755Z,89.60
2018-07-15T16:38:15.547Z,90.00
2018-07-15T16:40:56.666Z,90.80
2018-07-15T16:43:37.643Z,91.10
2018-07-15T16:46:18.164Z,91.50
2018-07-15T16:48:59.543Z,91.80
2018-07-15T16:51:40.132Z,91.90
2018-07-15T16:54:21.631Z,91.90
2018-07-15T16:57:03.069Z,91.90
2018-07-15T16:59:43.781Z,92.30
2018-07-15T17:02:24.782Z,92.70
2018-07-15T17:05:05.767Z,92.90
2018-07-15T17:07:46.888Z,92.40
2018-07-15T17:10:28.034Z,92.40
2018-07-15T17:13:08.976Z,92.50
2018-07-15T17:15:50.036Z,92.70
2018-07-15T17:18:31.640Z,92.90
2018-07-15T17:21:13.067Z,92.70
2018-07-15T17:23:54.016Z,92.90
2018-07-15T17:26:35.489Z,93.00
2018-07-15T17:29:16.567Z,92.90
2018-07-15T17:31:57.932Z,93.00
2018-07-15T17:34:39.405Z,93.00
2018-07-15T17:37:20.864Z,93.30
2018-07-15T17:40:01.808Z,93.40
2018-07-15T17:42:43.282Z,93.50
2018-07-15T17:45:24.542Z,93.70
2018-07-15T17:48:06.008Z,93.70
2018-07-15T17:50:47.172Z,93.90
2018-07-15T17:53:28.459Z,94.00
2018-07-15T17:56:09.975Z,94.40
2018-07-15T17:58:51.314Z,94.60
2018-07-15T18:01:32.818Z,94.40
2018-07-15T18:04:13.319Z,94.50
2018-07-15T18:06:53.977Z,94.80
2018-07-15T18:09:34.545Z,95.00
2018-07-15T18:12:15.937Z,95.00
2018-07-15T18:14:57.791Z,95.00
2018-07-15T18:17:38.444Z,95.00
2018-07-15T18:23:00.541Z,95.60
2018-07-15T18:25:41.528Z,95.70
2018-07-15T18:28:22.939Z,95.90
2018-07-15T18:31:04.028Z,96.10
2018-07-15T18:33:45.162Z,96.40
2018-07-15T18:36:26.263Z,96.50
2018-07-15T18:39:07.753Z,96.80
2018-07-15T18:41:48.536Z,97.00
2018-07-15T18:44:29.624Z,97.10
2018-07-15T18:47:10.475Z,98.00
2018-07-15T18:49:51.512Z,98.50
2018-07-15T18:52:32.318Z,99.00
2018-07-15T18:55:13.263Z,99.20
2018-07-15T18:57:54.700Z,99.40
2018-07-15T19:00:35.747Z,99.60
2018-07-15T19:03:17.163Z,99.90
2018-07-15T19:05:58.610Z,99.90
2018-07-15T19:08:39.521Z,99.90
2018-07-15T19:11:20.520Z,99.90
2018-07-15T19:14:01.636Z,99.90
2018-07-15T19:16:42.624Z,99.90
2018-07-15T19:19:23.860Z,99.90
2018-07-15T19:22:05.316Z,99.90
2018-07-15T19:24:46.442Z,99.90
2018-07-15T19:27:27.583Z,99.90
2018-07-15T19:30:08.767Z,99.90
2018-07-15T19:32:50.230Z,99.90
2018-07-15T19:35:31.685Z,99.90
2018-07-15T19:38:13.246Z,99.90
2018-07-15T19:40:53.941Z,99.90
2018-07-15T19:43:35.161Z,99.90
2018-07-15T19:46:15.991Z,99.90
2018-07-15T19:48:57.263Z,99.90
2018-07-15T19:51:38.503Z,99.90
2018-07-15T19:54:19.240Z,99.90
2018-07-15T19:57:00.699Z,99.90
2018-07-15T19:59:41.788Z,99.90
2018-07-15T20:02:22.768Z,99.90
2018-07-15T20:05:03.763Z,99.90
2018-07-15T20:07:44.681Z,99.90
2018-07-15T20:10:25.746Z,99.90
2018-07-15T20:13:07.342Z,99.90
2018-07-15T20:15:48.007Z,99.90
2018-07-15T20:18:29.174Z,99.90
2018-07-15T20:21:10.252Z,99.90
2018-07-15T20:23:51.985Z,99.90
2018-07-15T20:26:32.975Z,99.90
2018-07-15T20:29:14.020Z,99.90
2018-07-15T20:31:55.384Z,99.90
2018-07-15T20:34:36.529Z,99.90
2018-07-15T20:37:17.745Z,99.90
2018-07-15T20:39:58.700Z,99.90
2018-07-15T20:42:39.921Z,99.90
2018-07-15T20:45:21.478Z,99.90
2018-07-15T20:48:02.547Z,99.90
2018-07-15T20:50:43.978Z,99.90
2018-07-15T20:53:24.974Z,99.90
2018-07-15T20:56:06.507Z,99.90
2018-07-15T20:58:47.281Z,99.90
2018-07-15T21:01:28.459Z,99.90
2018-07-15T21:04:10.040Z,99.90
2018-07-15T21:06:51.132Z,99.90
2018-07-15T21:09:32.376Z,99.90
2018-07-15T21:12:13.208Z,99.90
2018-07-15T21:14:54.211Z,99.90
2018-07-15T21:17:35.341Z,99.90
2018-07-15T21:20:16.425Z,99.90
2018-07-15T21:22:57.307Z,99.90
2018-07-15T21:25:38.772Z,99.90
2018-07-15T21:28:20.317Z,99.90
2018-07-15T21:31:01.243Z,99.90
2018-07-15T21:33:42.788Z,99.90
2018-07-15T21:36:24.058Z,99.90
2018-07-15T21:41:46.858Z,99.90
2018-07-15T21:44:28.232Z,99.90
2018-07-15T21:47:09.400Z,99.90
2018-07-15T21:49:50.929Z,99.90
2018-07-15T21:52:32.166Z,99.90
2018-07-15T21:55:13.355Z,99.90
2018-07-15T21:57:54.631Z,99.90
2018-07-15T22:00:35.510Z,99.90
2018-07-15T22:03:16.488Z,99.90
2018-07-15T22:05:57.195Z,99.90
2018-07-15T22:08:38.283Z,99.90
2018-07-15T22:11:18.969Z,99.90
2018-07-15T22:14:00.403Z,99.90
2018-07-15T22:16:41.389Z,99.90
2018-07-15T22:19:22.507Z,99.90
2018-07-15T22:22:03.595Z,99.90
2018-07-15T22:24:44.388Z,99.90
2018-07-15T22:27:25.092Z,99.90
2018-07-15T22:30:05.825Z,99.90
2018-07-15T22:32:46.670Z,99.90
2018-07-15T22:35:27.991Z,99.90
2018-07-15T22:38:08.973Z,99.90
2018-07-15T22:40:49.923Z,99.90
2018-07-15T22:43:31.232Z,99.90
2018-07-15T22:46:12.495Z,99.90
2018-07-15T22:48:53.235Z,99.90
2018-07-15T22:51:33.963Z,99.90
2018-07-15T22:54:14.893Z,99.90
2018-07-15T22:56:55.578Z,99.90
2018-07-15T22:59:37.095Z,99.90
2018-07-15T23:02:18.016Z,99.90
2018-07-15T23:04:58.799Z,99.90
2018-07-15T23:07:39.687Z,99.90
2018-07-15T23:10:20.994Z,99.90
2018-07-15T23:13:03.383Z,99.90
2018-07-15T23:15:44.863Z,99.90
2018-07-15T23:18:25.681Z,99.90
2018-07-15T23:21:06.668Z,99.90
2018-07-15T23:23:47.684Z,99.90
2018-07-15T23:26:28.516Z,99.90
2018-07-15T23:29:09.455Z,99.90
2018-07-15T23:31:50.262Z,99.90
2018-07-15T23:34:30.848Z,99.90
2018-07-15T23:39:52.928Z,99.90
2018-07-15T23:42:34.444Z,99.90
2018-07-15T23:45:15.266Z,99.90
2018-07-15T23:47:56.632Z,99.90
2018-07-15T23:50:37.679Z,99.90
2018-07-15T23:53:18.848Z,99.90
2018-07-15T23:56:00.241Z,99.90
2018-07-15T23:58:41.580Z,99.90
